Terminal Aerodrome Forecast
Issued by NWS

Home | Current Version | Previous Version | Text Only | Print | Product List | Glossary On
Versions: 1 2 3 4 5 6 7 8 9 10 11 12 13 14 15 16 17 18 19 20 21
474
FTUS46 KPDT 240002 AAA
TAFRDM
TAF AMD
KRDM 240002Z 2400/2424 VRB05KT 2SM HZ BKN025 OVC100
      TEMPO 2400/2402 1SM -TSRA BKN050CB
     FM240200 33009KT 4SM HZ BKN035 OVC100
     FM240900 18003KT 5SM HZ SKC
     FM242100 33012G18KT 6SM HZ FEW080=

USA.gov is the U.S. government's official web portal to all federal, state and local government web resources and services.